createdAt,value
2018-09-30T00:00:27.893Z,8.24
2018-09-30T00:01:27.883Z,8.24
2018-09-30T00:02:27.874Z,8.26
2018-09-30T00:03:27.868Z,8.26
2018-09-30T00:04:27.862Z,8.26
2018-09-30T00:05:27.850Z,8.26
2018-09-30T00:06:27.851Z,8.13
2018-09-30T00:07:27.838Z,8.24
2018-09-30T00:08:27.830Z,8.08
2018-09-30T00:09:27.819Z,8.15
2018-09-30T00:10:27.809Z,8.26
2018-09-30T00:11:27.803Z,8.15
2018-09-30T00:12:27.797Z,8.19
2018-09-30T00:13:27.792Z,8.13
2018-09-30T00:14:27.780Z,8.10
2018-09-30T00:15:27.776Z,8.12
2018-09-30T00:16:27.762Z,8.08
2018-09-30T00:17:27.753Z,8.08
2018-09-30T00:18:27.748Z,8.08
2018-09-30T00:19:27.785Z,8.08
2018-09-30T00:20:27.734Z,8.06
2018-09-30T00:21:27.727Z,8.03
2018-09-30T00:22:27.719Z,8.15
2018-09-30T00:23:27.710Z,8.08
2018-09-30T00:24:27.700Z,8.01
2018-09-30T00:25:27.691Z,8.16
2018-09-30T00:26:27.686Z,8.16
2018-09-30T00:27:27.682Z,7.98
2018-09-30T00:28:27.670Z,8.10
2018-09-30T00:29:27.663Z,8.03
2018-09-30T00:30:27.653Z,8.00
2018-09-30T00:31:27.642Z,7.97
2018-09-30T00:32:27.634Z,7.93
2018-09-30T00:33:27.624Z,7.93
2018-09-30T00:34:27.622Z,7.90
2018-09-30T00:35:27.617Z,7.88
2018-09-30T00:36:27.666Z,7.87
2018-09-30T00:37:27.590Z,7.90
2018-09-30T00:38:27.583Z,7.87
2018-09-30T00:39:27.576Z,7.91
2018-09-30T00:40:27.569Z,7.91
2018-09-30T00:41:27.565Z,7.80
2018-09-30T00:42:27.556Z,7.88
2018-09-30T00:43:27.544Z,7.77
2018-09-30T00:44:27.537Z,7.90
2018-09-30T00:45:27.533Z,7.83
2018-09-30T00:46:27.517Z,7.83
2018-09-30T00:47:27.511Z,7.79
2018-09-30T00:48:27.502Z,7.83
2018-09-30T00:49:27.501Z,7.83
2018-09-30T00:50:27.490Z,7.80
2018-09-30T00:51:27.481Z,7.83
2018-09-30T00:52:27.469Z,7.75
2018-09-30T00:53:27.459Z,7.80
2018-09-30T00:54:27.453Z,7.75
2018-09-30T00:55:27.448Z,7.83
2018-09-30T00:56:27.443Z,7.83
2018-09-30T00:57:27.431Z,7.69
2018-09-30T00:58:27.421Z,7.66
2018-09-30T00:59:27.411Z,7.72
2018-09-30T01:00:27.402Z,7.75
2018-09-30T01:01:27.393Z,7.70
2018-09-30T01:02:27.393Z,7.70
2018-09-30T01:03:27.383Z,7.75
2018-09-30T01:04:27.377Z,7.73
2018-09-30T01:05:27.366Z,7.67
2018-09-30T01:06:27.356Z,7.69
2018-09-30T01:07:27.346Z,7.75
2018-09-30T01:08:27.337Z,7.73
2018-09-30T01:09:27.327Z,7.70
2018-09-30T01:10:27.319Z,7.58
2018-09-30T01:11:27.317Z,7.63
2018-09-30T01:12:27.303Z,7.60
2018-09-30T01:13:27.296Z,7.58
2018-09-30T01:14:27.287Z,7.63
2018-09-30T01:15:27.287Z,7.57
2018-09-30T01:16:27.274Z,7.63
2018-09-30T01:17:27.264Z,7.67
2018-09-30T01:18:27.256Z,7.57
2018-09-30T01:19:27.246Z,7.56
2018-09-30T01:20:27.241Z,7.50
2018-09-30T01:21:27.228Z,7.58
2018-09-30T01:22:27.222Z,7.48
2018-09-30T01:23:27.214Z,7.43
2018-09-30T01:24:27.213Z,7.47
2018-09-30T01:25:27.199Z,7.32
2018-09-30T01:26:27.192Z,7.35
2018-09-30T01:27:27.183Z,7.39
2018-09-30T01:28:27.168Z,7.33
2018-09-30T01:29:27.163Z,7.20
2018-09-30T01:30:27.154Z,7.17
2018-09-30T01:31:27.144Z,7.10
2018-09-30T01:32:27.140Z,7.07
2018-09-30T01:33:27.133Z,7.15
2018-09-30T01:34:27.119Z,7.13
2018-09-30T01:35:27.112Z,7.11
2018-09-30T01:36:27.102Z,7.13
2018-09-30T01:37:27.095Z,7.03
2018-09-30T01:38:27.085Z,7.00
2018-09-30T01:39:27.083Z,6.95
2018-09-30T01:40:27.074Z,6.99
2018-09-30T01:41:27.063Z,6.89
2018-09-30T01:42:27.052Z,6.97
2018-09-30T01:43:27.047Z,6.99
2018-09-30T01:44:27.040Z,6.92
2018-09-30T01:45:27.027Z,6.93
2018-09-30T01:46:27.019Z,6.92
2018-09-30T01:47:27.016Z,6.92
2018-09-30T01:48:27.004Z,6.85
2018-09-30T01:49:26.994Z,6.92
2018-09-30T01:50:26.982Z,6.87
2018-09-30T01:51:26.980Z,6.85
2018-09-30T01:52:26.965Z,6.89
2018-09-30T01:53:26.959Z,6.93
2018-09-30T01:54:26.954Z,6.93
2018-09-30T01:55:26.946Z,6.92
2018-09-30T01:56:26.935Z,6.95
2018-09-30T01:57:26.925Z,6.77
2018-09-30T01:58:26.914Z,6.78
2018-09-30T01:59:26.905Z,6.82
2018-09-30T02:00:26.899Z,6.79
2018-09-30T02:01:26.894Z,6.85
2018-09-30T02:02:26.883Z,6.72
2018-09-30T02:03:26.876Z,6.85
2018-09-30T02:04:26.867Z,6.79
2018-09-30T02:05:26.850Z,6.69
2018-09-30T02:06:26.845Z,6.70
2018-09-30T02:07:26.840Z,6.75
2018-09-30T02:08:26.830Z,6.70
2018-09-30T02:09:26.818Z,6.75
2018-09-30T02:10:26.814Z,6.64
2018-09-30T02:11:26.801Z,6.66
2018-09-30T02:12:26.794Z,6.64
2018-09-30T02:13:26.788Z,6.67
2018-09-30T02:14:26.779Z,6.66
2018-09-30T02:15:26.770Z,6.66
2018-09-30T02:16:26.761Z,6.69
2018-09-30T02:17:26.753Z,6.67
2018-09-30T02:18:26.748Z,6.66
2018-09-30T02:19:26.733Z,6.66
2018-09-30T02:20:26.727Z,6.69
2018-09-30T02:21:26.716Z,6.60
2018-09-30T02:22:26.709Z,6.62
2018-09-30T02:23:26.701Z,6.63
2018-09-30T02:24:26.693Z,6.62
2018-09-30T02:25:26.680Z,6.64
2018-09-30T02:26:26.671Z,6.52
2018-09-30T02:27:26.667Z,6.51
2018-09-30T02:28:26.659Z,6.46
2018-09-30T02:29:26.650Z,6.52
2018-09-30T02:30:26.639Z,6.54
2018-09-30T02:31:26.634Z,6.51
2018-09-30T02:32:26.625Z,6.51
2018-09-30T02:33:26.613Z,6.56
2018-09-30T02:34:26.606Z,6.52
2018-09-30T02:35:26.593Z,6.51
2018-09-30T02:36:26.591Z,6.54
2018-09-30T02:37:26.585Z,6.49
2018-09-30T02:38:26.572Z,6.54
2018-09-30T02:39:26.560Z,6.52
2018-09-30T02:40:26.550Z,6.51
2018-09-30T02:41:26.551Z,6.51
2018-09-30T02:42:26.534Z,6.57
2018-09-30T02:43:26.534Z,6.51
2018-09-30T02:44:26.519Z,6.51
2018-09-30T02:45:26.510Z,6.48
2018-09-30T02:46:26.502Z,6.48
2018-09-30T02:47:26.493Z,6.49
2018-09-30T02:48:26.485Z,6.54
2018-09-30T02:49:26.474Z,6.51
2018-09-30T02:50:26.469Z,6.52
2018-09-30T02:51:26.460Z,6.48
2018-09-30T02:52:26.451Z,6.45
2018-09-30T02:53:26.440Z,6.49
2018-09-30T02:54:26.433Z,6.41
2018-09-30T02:55:26.424Z,6.44
2018-09-30T02:56:26.414Z,6.42
2018-09-30T02:57:26.406Z,6.45
2018-09-30T02:58:26.400Z,6.39
2018-09-30T02:59:26.393Z,6.41
2018-09-30T03:00:26.378Z,6.39
2018-09-30T03:01:26.369Z,6.42
2018-09-30T03:02:26.359Z,6.38
2018-09-30T03:03:26.350Z,6.39
2018-09-30T03:04:26.345Z,6.39
2018-09-30T03:05:26.330Z,6.36
2018-09-30T03:06:26.330Z,6.36
2018-09-30T03:07:26.317Z,6.42
2018-09-30T03:08:26.305Z,6.42
2018-09-30T03:09:26.301Z,6.38
2018-09-30T03:10:26.286Z,6.41
2018-09-30T03:11:26.280Z,6.44
2018-09-30T03:12:26.275Z,6.36
2018-09-30T03:13:26.264Z,6.42
2018-09-30T03:14:26.257Z,6.41
2018-09-30T03:15:26.247Z,6.38
2018-09-30T03:16:26.237Z,6.42
2018-09-30T03:17:26.224Z,6.38
2018-09-30T03:18:26.217Z,6.33
2018-09-30T03:19:26.216Z,6.28
2018-09-30T03:20:26.205Z,6.28
2018-09-30T03:21:26.195Z,6.28
2018-09-30T03:22:26.186Z,6.30
2018-09-30T03:23:26.173Z,6.28
2018-09-30T03:24:26.166Z,6.31
2018-09-30T03:25:26.156Z,6.33
2018-09-30T03:26:26.155Z,6.27
2018-09-30T03:27:26.143Z,6.39
2018-09-30T03:28:26.135Z,6.35
2018-09-30T03:29:26.186Z,6.30
2018-09-30T03:30:26.113Z,6.26
2018-09-30T03:31:26.107Z,6.26
2018-09-30T03:32:26.098Z,6.22
2018-09-30T03:33:26.086Z,6.24
2018-09-30T03:34:26.080Z,6.24
2018-09-30T03:35:26.078Z,6.27
2018-09-30T03:36:26.065Z,6.24
2018-09-30T03:37:26.054Z,6.20
2018-09-30T03:38:26.042Z,6.26
2018-09-30T03:39:26.153Z,6.20
2018-09-30T03:41:01.809Z,6.24
2018-09-30T03:41:26.017Z,6.24
2018-09-30T03:42:26.014Z,6.30
2018-09-30T03:43:25.997Z,6.16
2018-09-30T03:44:25.991Z,6.17
2018-09-30T03:45:25.982Z,6.16
2018-09-30T03:46:25.971Z,6.17
2018-09-30T03:47:25.970Z,6.24
2018-09-30T03:48:25.958Z,6.22
2018-09-30T03:49:25.948Z,6.17
2018-09-30T03:50:25.944Z,6.12
2018-09-30T03:51:25.925Z,6.14
2018-09-30T03:52:25.921Z,6.19
2018-09-30T03:53:25.909Z,6.20
2018-09-30T03:54:25.903Z,6.11
2018-09-30T03:55:25.901Z,6.14
2018-09-30T03:56:25.900Z,6.11
2018-09-30T03:57:25.880Z,6.19
2018-09-30T03:58:25.898Z,6.19
2018-09-30T03:59:25.865Z,6.12
2018-09-30T04:00:25.850Z,6.14
2018-09-30T04:01:25.840Z,6.14
2018-09-30T04:02:25.836Z,6.07
2018-09-30T04:03:25.823Z,6.11
2018-09-30T04:04:25.815Z,6.08
2018-09-30T04:05:25.808Z,6.14
2018-09-30T04:06:25.793Z,6.12
2018-09-30T04:07:25.785Z,6.11
2018-09-30T04:08:25.778Z,6.02
2018-09-30T04:09:25.836Z,6.08
2018-09-30T04:10:25.764Z,6.02
2018-09-30T04:11:25.753Z,6.07
2018-09-30T04:12:25.746Z,6.04
2018-09-30T04:13:25.731Z,5.91
2018-09-30T04:14:25.723Z,5.99
2018-09-30T04:15:25.715Z,5.98
2018-09-30T04:16:25.708Z,5.94
2018-09-30T04:17:25.729Z,5.94
2018-09-30T04:18:25.691Z,5.89
2018-09-30T04:19:25.684Z,5.87
2018-09-30T04:20:25.676Z,5.82
2018-09-30T04:21:25.661Z,5.86
2018-09-30T04:22:25.653Z,5.82
2018-09-30T04:23:25.645Z,5.86
2018-09-30T04:24:25.638Z,5.75
2018-09-30T04:25:25.629Z,5.80
2018-09-30T04:26:25.619Z,5.75
2018-09-30T04:27:25.608Z,5.82
2018-09-30T04:28:25.598Z,5.73
2018-09-30T04:29:25.593Z,5.69
2018-09-30T04:30:25.584Z,5.62
2018-09-30T04:31:25.580Z,5.72
2018-09-30T04:32:25.568Z,5.66
2018-09-30T04:33:25.662Z,5.69
2018-09-30T04:34:25.553Z,5.69
2018-09-30T04:35:25.536Z,5.68
2018-09-30T04:36:25.529Z,5.72
2018-09-30T04:37:25.518Z,5.64
2018-09-30T04:38:25.512Z,5.69
2018-09-30T04:39:25.505Z,5.69
2018-09-30T04:40:25.496Z,5.69
2018-09-30T04:41:25.488Z,5.69
2018-09-30T04:42:25.475Z,5.69
2018-09-30T04:43:25.467Z,5.61
2018-09-30T04:44:25.456Z,5.61
2018-09-30T04:45:25.450Z,5.57
2018-09-30T04:46:25.443Z,5.54
2018-09-30T04:47:25.436Z,5.56
2018-09-30T04:48:25.433Z,5.47
2018-09-30T04:49:25.413Z,5.46
2018-09-30T04:50:25.401Z,5.38
2018-09-30T04:51:25.394Z,5.32
2018-09-30T04:52:25.385Z,5.35
2018-09-30T04:53:25.378Z,5.38
2018-09-30T04:54:25.374Z,5.32
2018-09-30T04:55:25.363Z,5.26
2018-09-30T04:56:25.350Z,5.28
2018-09-30T04:57:25.338Z,5.28
2018-09-30T04:58:25.329Z,5.23
2018-09-30T04:59:25.324Z,5.26
2018-09-30T05:00:25.314Z,5.23
2018-09-30T05:01:25.309Z,5.23
2018-09-30T05:02:25.297Z,5.26
2018-09-30T05:03:25.286Z,5.29
2018-09-30T05:04:25.276Z,5.29
2018-09-30T05:05:25.269Z,5.33
2018-09-30T05:06:25.258Z,5.29
2018-09-30T05:07:25.256Z,5.28
2018-09-30T05:08:25.245Z,5.23
2018-09-30T05:09:25.258Z,5.29
2018-09-30T05:10:25.222Z,5.17
2018-09-30T05:11:25.217Z,5.21
2018-09-30T05:12:25.205Z,5.12
2018-09-30T05:13:25.198Z,5.17
2018-09-30T05:14:25.186Z,5.17
2018-09-30T05:15:25.180Z,5.17
2018-09-30T05:16:25.180Z,5.20
2018-09-30T05:17:25.161Z,5.26
2018-09-30T05:18:25.148Z,5.17
2018-09-30T05:19:25.142Z,5.14
2018-09-30T05:20:25.138Z,5.15
2018-09-30T05:21:25.126Z,5.17
2018-09-30T05:22:25.117Z,5.11
2018-09-30T05:23:25.106Z,5.10
2018-09-30T05:24:25.094Z,5.11
2018-09-30T05:25:25.086Z,5.10
2018-09-30T05:26:25.076Z,5.14
2018-09-30T05:27:25.066Z,5.17
2018-09-30T05:28:25.063Z,5.04
2018-09-30T05:29:25.051Z,5.10
2018-09-30T05:30:25.045Z,5.02
2018-09-30T05:31:25.034Z,5.07
2018-09-30T05:32:25.023Z,5.08
2018-09-30T05:33:25.013Z,5.04
2018-09-30T05:34:25.005Z,5.04
2018-09-30T05:35:24.994Z,5.05
2018-09-30T05:36:24.990Z,4.93
2018-09-30T05:37:24.981Z,5.04
2018-09-30T05:38:24.969Z,4.99
2018-09-30T05:39:24.957Z,5.02
2018-09-30T05:40:24.954Z,5.07
2018-09-30T05:41:24.938Z,5.00
2018-09-30T05:42:24.948Z,5.08
2018-09-30T05:43:24.929Z,5.11
2018-09-30T05:44:24.931Z,5.10
2018-09-30T05:45:24.907Z,5.11
2018-09-30T05:46:24.890Z,5.17
2018-09-30T05:47:24.884Z,5.18
2018-09-30T05:48:24.876Z,5.20
2018-09-30T05:49:24.865Z,5.15
2018-09-30T05:50:24.859Z,5.21
2018-09-30T05:51:24.854Z,5.18
2018-09-30T05:52:24.844Z,5.12
2018-09-30T05:53:24.831Z,5.15
2018-09-30T05:54:24.820Z,5.11
2018-09-30T05:55:24.813Z,5.10
2018-09-30T05:56:24.840Z,5.15
2018-09-30T05:57:24.868Z,5.05
2018-09-30T05:58:24.787Z,5.20
2018-09-30T05:59:24.779Z,5.10
2018-09-30T06:00:24.770Z,5.21
2018-09-30T06:01:24.755Z,5.17
2018-09-30T06:02:24.746Z,5.15
2018-09-30T06:03:24.739Z,5.15
2018-09-30T06:04:24.737Z,5.21
2018-09-30T06:05:24.724Z,5.17
2018-09-30T06:06:24.711Z,5.17
2018-09-30T06:07:24.704Z,5.18
2018-09-30T06:08:24.693Z,5.20
2018-09-30T06:09:24.702Z,5.11
2018-09-30T06:10:24.671Z,5.23
2018-09-30T06:11:24.666Z,5.14
2018-09-30T06:12:24.665Z,5.18
2018-09-30T06:13:24.647Z,5.23
2018-09-30T06:14:24.636Z,5.28
2018-09-30T06:15:24.629Z,5.23
2018-09-30T06:16:24.619Z,5.14
2018-09-30T06:17:24.608Z,5.29
2018-09-30T06:18:24.605Z,5.23
2018-09-30T06:19:24.599Z,5.23
2018-09-30T06:20:24.585Z,5.33
2018-09-30T06:21:24.580Z,5.38
2018-09-30T06:22:24.563Z,5.33
2018-09-30T06:23:24.553Z,5.32
2018-09-30T06:24:24.545Z,5.29
2018-09-30T06:25:24.540Z,5.32
2018-09-30T06:26:24.531Z,5.32
2018-09-30T06:27:24.526Z,5.41
2018-09-30T06:28:24.512Z,5.41
2018-09-30T06:29:24.498Z,5.38
2018-09-30T06:30:24.489Z,5.41
2018-09-30T06:31:24.488Z,5.44
2018-09-30T06:32:24.477Z,5.47
2018-09-30T06:33:24.466Z,5.50
2018-09-30T06:34:24.456Z,5.50
2018-09-30T06:35:24.446Z,5.54
2018-09-30T06:36:24.438Z,5.57
2018-09-30T06:37:24.425Z,5.62
2018-09-30T06:38:24.416Z,5.57
2018-09-30T06:39:24.411Z,5.56
2018-09-30T06:40:24.440Z,5.59
2018-09-30T06:41:24.390Z,5.62
2018-09-30T06:42:24.386Z,5.61
2018-09-30T06:43:24.387Z,5.66
2018-09-30T06:44:24.366Z,5.72
2018-09-30T06:45:24.378Z,5.69
2018-09-30T06:46:24.344Z,5.64
2018-09-30T06:47:24.339Z,5.68
2018-09-30T06:48:24.330Z,5.69
2018-09-30T06:49:24.320Z,5.73
2018-09-30T06:50:24.312Z,5.72
2018-09-30T06:51:24.301Z,5.79
2018-09-30T06:52:24.292Z,5.80
2018-09-30T06:53:24.281Z,5.79
2018-09-30T06:54:24.272Z,5.82
2018-09-30T06:55:24.267Z,5.84
2018-09-30T06:56:24.258Z,5.75
2018-09-30T06:57:24.244Z,5.84
2018-09-30T06:58:24.238Z,5.84
2018-09-30T06:59:24.227Z,5.94
2018-09-30T07:00:24.220Z,5.99
2018-09-30T07:01:24.209Z,6.01
2018-09-30T07:02:24.226Z,5.99
2018-09-30T07:03:24.227Z,6.14
2018-09-30T07:04:24.185Z,6.08
2018-09-30T07:05:24.176Z,6.14
2018-09-30T07:06:24.166Z,6.14
2018-09-30T07:07:24.160Z,6.19
2018-09-30T07:08:24.146Z,6.24
2018-09-30T07:09:24.139Z,6.17
2018-09-30T07:10:24.134Z,6.20
2018-09-30T07:11:24.126Z,6.24
2018-09-30T07:12:24.110Z,6.26
2018-09-30T07:13:24.105Z,6.33
2018-09-30T07:14:24.094Z,6.36
2018-09-30T07:15:24.085Z,6.33
2018-09-30T07:16:24.082Z,6.31
2018-09-30T07:17:24.079Z,6.35
2018-09-30T07:18:24.062Z,6.44
2018-09-30T07:19:24.051Z,6.46
2018-09-30T07:20:24.041Z,6.45
2018-09-30T07:21:24.035Z,6.44
2018-09-30T07:22:24.070Z,6.57
2018-09-30T07:23:24.020Z,6.59
2018-09-30T07:24:24.004Z,6.62
2018-09-30T07:25:23.997Z,6.67
2018-09-30T07:26:23.985Z,6.72
2018-09-30T07:27:23.979Z,6.78
2018-09-30T07:28:23.973Z,6.79
2018-09-30T07:29:23.966Z,6.95
2018-09-30T07:30:23.956Z,6.93
2018-09-30T07:31:23.949Z,6.93
2018-09-30T07:32:23.941Z,7.02
2018-09-30T07:33:23.934Z,7.06
2018-09-30T07:34:23.919Z,7.18
2018-09-30T07:35:23.911Z,7.15
2018-09-30T07:36:23.906Z,7.17
2018-09-30T07:37:23.895Z,7.18
2018-09-30T07:38:23.884Z,7.20
2018-09-30T07:39:23.925Z,7.33
2018-09-30T07:40:23.869Z,7.35
2018-09-30T07:41:23.859Z,7.33
2018-09-30T07:42:23.853Z,7.42
2018-09-30T07:43:23.845Z,7.50
2018-09-30T07:44:23.837Z,7.43
2018-09-30T07:45:23.831Z,7.51
2018-09-30T07:46:23.824Z,7.58
2018-09-30T07:47:23.812Z,7.57
2018-09-30T07:48:23.801Z,7.70
2018-09-30T07:49:23.790Z,7.61
2018-09-30T07:50:23.787Z,7.76
2018-09-30T07:51:23.775Z,7.73
2018-09-30T07:52:23.795Z,7.75
2018-09-30T07:53:23.763Z,7.73
2018-09-30T07:54:23.753Z,7.76
2018-09-30T07:55:23.743Z,7.70
2018-09-30T07:56:23.733Z,7.70
2018-09-30T07:57:23.722Z,7.75
2018-09-30T07:58:23.712Z,7.83
2018-09-30T07:59:23.709Z,7.83
2018-09-30T08:00:23.706Z,7.87
2018-09-30T08:01:23.692Z,7.83
2018-09-30T08:02:23.690Z,7.90
2018-09-30T08:03:23.678Z,7.93
2018-09-30T08:04:23.665Z,8.03
2018-09-30T08:05:23.656Z,8.01
2018-09-30T08:06:23.721Z,8.06
2018-09-30T08:07:23.641Z,8.10
2018-09-30T08:08:23.633Z,8.09
2018-09-30T08:09:23.662Z,8.23
2018-09-30T08:10:23.614Z,8.06
2018-09-30T08:11:23.607Z,8.13
2018-09-30T08:12:23.607Z,8.26
2018-09-30T08:13:23.593Z,8.36
2018-09-30T08:14:23.585Z,8.33
2018-09-30T08:15:23.579Z,8.41
2018-09-30T08:16:23.574Z,8.37
2018-09-30T08:17:23.556Z,8.45
2018-09-30T08:18:23.558Z,8.48
2018-09-30T08:19:23.540Z,8.44
2018-09-30T08:20:23.539Z,8.52
2018-09-30T08:21:23.528Z,8.55
2018-09-30T08:22:23.518Z,8.52
2018-09-30T08:23:23.519Z,8.61
2018-09-30T08:24:23.541Z,8.70
2018-09-30T08:25:23.495Z,8.66
2018-09-30T08:26:23.484Z,8.74
2018-09-30T08:27:23.478Z,8.67
2018-09-30T08:28:23.470Z,8.76
2018-09-30T08:29:23.465Z,8.78
2018-09-30T08:30:23.458Z,8.82
2018-09-30T08:31:23.447Z,8.92
2018-09-30T08:32:23.436Z,8.88
2018-09-30T08:33:23.432Z,9.06
2018-09-30T08:34:23.420Z,9.16
2018-09-30T08:35:23.414Z,9.25
2018-09-30T08:36:23.407Z,9.28
2018-09-30T08:37:23.400Z,9.31
2018-09-30T08:38:23.393Z,9.37
2018-09-30T08:39:23.382Z,9.44
2018-09-30T08:40:23.373Z,9.74
2018-09-30T08:41:23.366Z,9.80
2018-09-30T08:42:23.361Z,9.99
2018-09-30T08:43:23.352Z,10.16
2018-09-30T08:44:23.441Z,10.30
2018-09-30T08:45:23.337Z,10.56
2018-09-30T08:46:23.326Z,10.79
2018-09-30T08:47:23.360Z,11.04
2018-09-30T08:48:23.311Z,11.30
2018-09-30T08:49:23.382Z,11.65
2018-09-30T08:50:23.304Z,11.94
2018-09-30T08:51:23.293Z,12.24
2018-09-30T08:52:23.283Z,12.49
2018-09-30T08:53:23.276Z,12.82
2018-09-30T08:54:23.275Z,13.05
2018-09-30T08:55:23.270Z,13.35
2018-09-30T08:56:23.268Z,13.74
2018-09-30T08:57:23.258Z,13.99
2018-09-30T08:58:23.260Z,14.30
2018-09-30T08:59:23.246Z,14.36
2018-09-30T09:00:23.246Z,14.59
2018-09-30T09:01:23.244Z,14.65
2018-09-30T09:02:23.242Z,14.78
2018-09-30T09:03:23.239Z,14.96
2018-09-30T09:04:23.231Z,15.14
2018-09-30T09:05:23.233Z,15.17
2018-09-30T09:06:23.242Z,15.29
2018-09-30T09:07:23.229Z,15.43
2018-09-30T09:08:23.230Z,15.49
2018-09-30T09:09:23.227Z,15.57
2018-09-30T09:10:23.231Z,15.47
2018-09-30T09:11:23.226Z,15.62
2018-09-30T09:12:23.232Z,15.80
2018-09-30T09:13:23.223Z,15.76
2018-09-30T09:14:23.227Z,16.02
2018-09-30T09:15:23.243Z,16.00
2018-09-30T09:16:23.227Z,16.10
2018-09-30T09:17:23.231Z,16.20
2018-09-30T09:18:23.234Z,16.32
2018-09-30T09:19:23.232Z,16.43
2018-09-30T09:20:23.232Z,16.65
2018-09-30T09:21:23.233Z,16.65
2018-09-30T09:22:23.268Z,16.65
2018-09-30T09:23:23.237Z,16.87
2018-09-30T09:24:23.248Z,17.02
2018-09-30T09:25:23.246Z,17.24
2018-09-30T09:26:23.245Z,17.46
2018-09-30T09:27:23.249Z,17.57
2018-09-30T09:28:23.246Z,17.67
2018-09-30T09:29:23.254Z,17.92
2018-09-30T09:30:23.253Z,17.95
2018-09-30T09:31:23.257Z,17.94
2018-09-30T09:32:23.263Z,17.97
2018-09-30T09:33:23.262Z,18.11
2018-09-30T09:34:23.267Z,18.34
2018-09-30T09:35:23.264Z,18.62
2018-09-30T09:36:23.274Z,18.84
2018-09-30T09:37:23.276Z,19.02
2018-09-30T09:38:23.310Z,19.19
2018-09-30T09:39:23.283Z,19.15
2018-09-30T09:40:23.287Z,19.18
2018-09-30T09:41:23.286Z,18.89
2018-09-30T09:42:23.293Z,18.86
2018-09-30T09:43:23.295Z,18.73
2018-09-30T09:44:23.304Z,18.84
2018-09-30T09:45:23.305Z,18.88
2018-09-30T09:46:23.307Z,18.80
2018-09-30T09:47:23.311Z,18.90
2018-09-30T09:48:23.317Z,19.02
2018-09-30T09:49:23.319Z,19.14
2018-09-30T09:50:23.321Z,19.49
2018-09-30T09:51:23.329Z,19.70
2018-09-30T09:52:23.353Z,19.59
2018-09-30T09:53:23.336Z,19.66
2018-09-30T09:54:23.341Z,19.73
2018-09-30T09:55:23.346Z,19.79
2018-09-30T09:56:23.351Z,19.94
2018-09-30T09:57:23.353Z,20.09
2018-09-30T09:58:23.356Z,20.09
2018-09-30T09:59:23.495Z,20.07
2018-09-30T10:00:23.369Z,19.74
2018-09-30T10:01:23.377Z,19.69
2018-09-30T10:02:23.373Z,19.96
2018-09-30T10:03:23.378Z,20.13
2018-09-30T10:04:23.394Z,20.56
2018-09-30T10:05:23.395Z,20.70
2018-09-30T10:06:23.396Z,21.03
2018-09-30T10:07:23.401Z,21.09
2018-09-30T10:08:23.405Z,21.06
2018-09-30T10:09:23.407Z,21.25
2018-09-30T10:10:23.413Z,21.27
2018-09-30T10:11:23.418Z,21.36
2018-09-30T10:12:23.423Z,21.57
2018-09-30T10:13:23.506Z,21.82
2018-09-30T10:14:23.444Z,22.07
2018-09-30T10:15:23.439Z,21.67
2018-09-30T10:16:23.440Z,21.09
2018-09-30T10:17:23.453Z,20.87
2018-09-30T10:18:23.458Z,20.78
2018-09-30T10:19:23.466Z,21.06
2018-09-30T10:20:23.464Z,21.07
2018-09-30T10:21:23.468Z,20.97
2018-09-30T10:22:23.472Z,21.21
2018-09-30T10:23:23.477Z,21.32
2018-09-30T10:24:23.481Z,20.92
2018-09-30T10:25:23.490Z,20.81
2018-09-30T10:26:23.497Z,20.65
2018-09-30T10:27:23.497Z,20.62
2018-09-30T10:28:23.501Z,20.67
2018-09-30T10:29:23.502Z,20.65
2018-09-30T10:30:23.516Z,20.66
2018-09-30T10:31:23.513Z,20.74
2018-09-30T10:32:23.517Z,20.77
2018-09-30T10:33:23.521Z,20.69
2018-09-30T10:34:23.527Z,20.63
2018-09-30T10:35:23.533Z,20.56
2018-09-30T10:36:23.539Z,20.34
2018-09-30T10:37:23.554Z,20.50
2018-09-30T10:38:23.630Z,20.66
2018-09-30T10:39:23.678Z,20.80
2018-09-30T10:40:23.563Z,21.18
2018-09-30T10:41:23.567Z,21.32
2018-09-30T10:42:23.572Z,21.45
2018-09-30T10:43:23.578Z,21.50
2018-09-30T10:44:23.577Z,21.35
2018-09-30T10:45:23.583Z,21.21
2018-09-30T10:46:23.597Z,21.32
2018-09-30T10:47:23.600Z,21.50
2018-09-30T10:48:23.674Z,21.75
2018-09-30T10:49:23.606Z,21.82
2018-09-30T10:50:23.607Z,21.70
2018-09-30T10:51:23.620Z,21.73
2018-09-30T10:52:23.624Z,21.85
2018-09-30T10:53:23.629Z,21.76
2018-09-30T10:54:23.629Z,21.61
2018-09-30T10:55:23.748Z,21.57
2018-09-30T10:56:23.642Z,21.58
2018-09-30T10:57:23.646Z,21.80
2018-09-30T10:58:23.653Z,22.04
2018-09-30T10:59:23.662Z,22.38
2018-09-30T11:00:23.665Z,22.59
2018-09-30T11:01:23.672Z,22.76
2018-09-30T11:02:23.674Z,22.83
2018-09-30T11:03:23.684Z,22.85
2018-09-30T11:04:23.681Z,22.81
2018-09-30T11:05:23.687Z,22.66
2018-09-30T11:06:23.693Z,22.68
2018-09-30T11:07:23.698Z,22.83
2018-09-30T11:08:23.708Z,22.83
2018-09-30T11:09:23.717Z,22.75
2018-09-30T11:10:23.716Z,22.51
2018-09-30T11:11:23.727Z,22.55
2018-09-30T11:12:23.727Z,22.76
2018-09-30T11:13:23.737Z,22.72
2018-09-30T11:14:23.744Z,22.43
2018-09-30T11:15:23.750Z,22.08
2018-09-30T11:16:23.754Z,22.02
2018-09-30T11:17:23.757Z,21.72
2018-09-30T11:18:23.765Z,21.35
2018-09-30T11:19:23.766Z,21.07
2018-09-30T11:20:23.770Z,21.06
2018-09-30T11:21:23.778Z,21.22
2018-09-30T11:22:23.832Z,21.35
2018-09-30T11:23:23.810Z,21.58
2018-09-30T11:24:23.794Z,21.73
2018-09-30T11:25:23.797Z,21.91
2018-09-30T11:26:23.807Z,21.96
2018-09-30T11:27:23.808Z,22.00
2018-09-30T11:28:23.815Z,21.88
2018-09-30T11:29:23.823Z,21.35
2018-09-30T11:30:23.826Z,21.00
2018-09-30T11:31:23.833Z,20.65
2018-09-30T11:32:23.845Z,20.36
2018-09-30T11:33:23.842Z,20.22
2018-09-30T11:34:23.848Z,20.50
2018-09-30T11:35:23.863Z,20.58
2018-09-30T11:36:23.869Z,20.88
2018-09-30T11:37:23.871Z,21.14
2018-09-30T11:38:23.868Z,21.82
2018-09-30T11:39:23.877Z,22.17
2018-09-30T11:40:23.878Z,22.20
2018-09-30T11:41:23.884Z,22.51
2018-09-30T11:42:23.895Z,22.84
2018-09-30T11:43:23.897Z,23.17
2018-09-30T11:44:23.900Z,22.81
2018-09-30T11:45:23.911Z,22.53
2018-09-30T11:46:23.915Z,22.10
2018-09-30T11:47:23.918Z,22.10
2018-09-30T11:48:23.919Z,22.26
2018-09-30T11:49:23.924Z,22.41
2018-09-30T11:50:23.933Z,22.41
2018-09-30T11:51:23.943Z,22.22
2018-09-30T11:52:23.945Z,22.18
2018-09-30T11:53:23.953Z,22.51
2018-09-30T11:54:23.954Z,22.78
2018-09-30T11:55:23.957Z,22.90
2018-09-30T11:56:23.963Z,23.12
2018-09-30T11:57:23.968Z,23.24
2018-09-30T11:58:23.978Z,23.25
2018-09-30T11:59:23.978Z,23.27
2018-09-30T12:00:23.984Z,22.98
2018-09-30T12:01:24.047Z,22.84
2018-09-30T12:02:24.158Z,22.80
2018-09-30T12:03:24.003Z,22.53
2018-09-30T12:04:24.023Z,22.53
2018-09-30T12:05:24.008Z,22.78
2018-09-30T12:06:24.014Z,22.90
2018-09-30T12:07:24.015Z,23.08
2018-09-30T12:08:24.019Z,23.28
2018-09-30T12:09:24.029Z,22.94
2018-09-30T12:10:24.035Z,22.70
2018-09-30T12:11:24.040Z,22.81
2018-09-30T12:12:24.046Z,22.76
2018-09-30T12:13:24.048Z,22.55
2018-09-30T12:14:24.054Z,22.36
2018-09-30T12:15:24.063Z,22.22
2018-09-30T12:16:24.066Z,21.99
2018-09-30T12:17:24.073Z,22.06
2018-09-30T12:18:24.076Z,22.25
2018-09-30T12:19:24.078Z,22.51
2018-09-30T12:20:24.081Z,22.81
2018-09-30T12:21:24.083Z,23.09
2018-09-30T12:22:24.085Z,22.93
2018-09-30T12:23:24.093Z,22.73
2018-09-30T12:24:24.097Z,22.54
2018-09-30T12:25:24.108Z,22.48
2018-09-30T12:26:24.121Z,22.25
2018-09-30T12:27:24.109Z,22.06
2018-09-30T12:28:24.124Z,21.92
2018-09-30T12:29:24.118Z,21.80
2018-09-30T12:30:24.125Z,21.82
2018-09-30T12:31:24.130Z,21.82
2018-09-30T12:32:24.136Z,21.80
2018-09-30T12:33:24.138Z,21.88
2018-09-30T12:34:24.144Z,21.92
2018-09-30T12:35:24.150Z,21.96
2018-09-30T12:36:24.152Z,22.00
2018-09-30T12:37:24.156Z,22.22
2018-09-30T12:38:24.163Z,22.30
2018-09-30T12:39:24.278Z,22.57
2018-09-30T12:40:24.173Z,22.81
2018-09-30T12:41:24.181Z,22.94
2018-09-30T12:42:24.182Z,22.94
2018-09-30T12:43:24.182Z,23.24
2018-09-30T12:44:24.189Z,23.40
2018-09-30T12:45:24.194Z,23.13
2018-09-30T12:46:24.203Z,22.73
2018-09-30T12:47:24.216Z,22.62
2018-09-30T12:48:24.244Z,22.47
2018-09-30T12:49:24.236Z,22.48
2018-09-30T12:50:24.234Z,22.60
2018-09-30T12:51:24.244Z,22.57
2018-09-30T12:52:24.229Z,22.51
2018-09-30T12:53:24.229Z,22.53
2018-09-30T12:54:24.236Z,22.44
2018-09-30T12:55:24.247Z,22.47
2018-09-30T12:56:24.249Z,22.57
2018-09-30T12:57:24.246Z,22.60
2018-09-30T12:58:24.251Z,22.84
2018-09-30T12:59:24.257Z,23.34
2018-09-30T13:00:24.264Z,23.09
2018-09-30T13:01:24.267Z,22.91
2018-09-30T13:02:24.277Z,22.60
2018-09-30T13:03:24.278Z,22.33
2018-09-30T13:04:24.275Z,22.13
2018-09-30T13:05:24.279Z,22.07
2018-09-30T13:06:24.285Z,21.95
2018-09-30T13:07:24.290Z,21.73
2018-09-30T13:08:24.296Z,21.70
2018-09-30T13:09:24.298Z,22.02